Winthrop, IA (50682)

9:44 AM CST on February 12, 2016 (GMT -0600)
Terrace Drive SE | | Change Station
CLOSE
Current Station
Personal Weather Station
Location: Independence, IA
Elevation: 940 ft
Nearby Weather Stations
Active Advisory: Wind Chill Advisory

Elev 940 ft 42.47 °N, 91.88 °W | Updated 31 seconds ago

Mostly Cloudy
Mostly Cloudy
17.8 °F
Feels Like 8 °F
N
7.0
Wind Variable Wind from NW
Gusts 20.0 mph

Today
High -- | Low -- °F
--% Chance of Precip.
Yesterday
High -- | Low -- °F
Precip. -- in
Pressure 30.29 in
Visibility 4.0 miles
Clouds Overcast 1500 ft
Windchill 8 °F
Dew Point 11 °F
Humidity 75%
Rainfall 0.00 in
Snow Depth Not available.
7:08 AM 5:34 PM
Waxing Crescent, 21% visible
METAR KOLZ 121535Z AUTO 33018G26KT 4SM -SN OVC015 M10/M13 A3029 RMK AO2
Pressure 30.29 in
Visibility 4.0 miles
Clouds Overcast 1500 ft
Windchill 8 °F
Dew Point 11 °F
Humidity 75%
Rainfall 0.00 in
Snow Depth Not available.
7:08 AM 5:34 PM
Waxing Crescent, 21% visible
METAR KOLZ 121535Z AUTO 33018G26KT 4SM -SN OVC015 M10/M13 A3029 RMK AO2

10-Day Weather Forecast

Almanac

Astronomy

Feb. 12, 2016 Rise Set
Actual Time
Civil Twilight
Nautical Twilight
Astronomical Twilight
Moon
Length of Visible Light
Length of Day
Tomorrow will be .
, % of the Moon is Illuminated

Today's Extremes

State Highs State Lows

Community

WunderPhotos

Upload Photos

1,892,335 photos uploaded!

WunderBlog® & News

Nearby

Air Quality

  Air Quality AQ Index Pollutant
Not available.

Snow Depth

Station Depth Elevation

Earthquake Activity

City Distance Mag. Time & Date
Minimum magnitude displayed is 2.5.

Coastal Water Temperatures

Place Temperature

Stations

Nearby Weather Stations

Station Location Temp. Windchill Dew Point Humidity Wind Precip. Elev Updated Type
                   

Watches & Warnings

Wind Chill Advisory
Issued: 3:12 AM CST Feb. 12, 2016 – National Weather Service

... Wind Chill Advisory in effect from 9 PM this evening to 9 am
CST Saturday...

The National Weather Service in Quad Cities has issued a Wind
Chill Advisory... which is in effect from 9 PM this evening to
9 am CST Saturday.

* Timing... later this evening through mid morning on Saturday.

* Wind chill... 20 to 25 below zero.

* Wind... northwest 10 to 15 mph.

* Temperatures... 5 to 10 below zero.

* Impacts... frostbite and hypothermia are possible if precautions
are not taken. The cold wind chills will cause frostbite in as
little as 30 minutes to exposed skin.

Precautionary/preparedness actions...

A Wind Chill Advisory means that very cold air and strong winds
will combine to generate low wind chills... resulting in frostbite
and hypothermia if precautions are not taken. If you must venture
outdoors... dress in layers covering exposed skin. Frostbite will
occur in as few as 30 minutes in these conditions.



Haase